ADDS METAR Data INFO
IDs: Format: Raw Decoded Include TAF

Data at: 0756 UTC 23 Jul 2018

KCOS 230754Z 32014G22KT 10SM BKN070 BKN160 19/13 A3044 RMK AO2 SLP207 OCNL LTGICCG DSNT NW CB DSNT NW MOV SE T01940133 $
KCOS 230654Z 32011KT 10SM BKN075 BKN160 21/13 A3042 RMK AO2 SLP203 T02060128 403390161 $
KCOS 230554Z 33013KT 10SM BKN085 OVC160 21/13 A3041 RMK AO2 RAB12E22 SLP194 P0000 60000 T02110128 10222 20200 50019 $
KCOS 230454Z 33010KT 10SM FEW100 BKN160 BKN250 21/13 A3042 RMK AO2 SLP193 T02060128 $
KCOS 230354Z 32013KT 10SM FEW100 BKN160 BKN250 21/13 A3039 RMK AO2 PRESRR SLP187 T02060128 $
KCOS 230254Z 31011KT 10SM FEW070 BKN110 BKN250 21/13 A3034 RMK AO2 SLP173 60000 T02110133 53004 $
KCOS 230154Z 35013G26KT 10SM FEW080 SCT140 BKN250 21/14 A3031 RMK AO2 PK WND 34028/0142 RAE30 SLP175 P0000 T02110139 $
KCOS 230054Z 31009KT 10SM -RA FEW080 BKN110 OVC200 22/14 A3035 RMK AO2 SLP195 PCPN VRY LGT P0000 T02220139 $
KCOS 222354Z 36019G24KT 10SM -RA FEW060 BKN110 OVC200 21/15 A3033 RMK AO2 SLP195 TSE52 PK WND 06028/2314 OCNL LTGICCG DSNT SE AND NW CB DSNT SE AND NW MOV E P0002 60030 T02060150 10333 20200 50023 $
KCOS 222318Z 07018G28KT 10SM VCTS -RA FEW060 BKN090CB BKN200 21/14 A3034 RMK AO2 PK WND 06028/2314 OCNL LTGICCG VC E-SE TS VC E-SE MOV E P0002 T02110144 $
KCOS 222254Z 04015G23KT 10SM R17L/5000VP6000FT -TSRA SCT040 BKN070CB OVC100 21/13 A3034 RMK AO2 PK WND 26037/2232 PRESRR SLP196 RAB11 TSB11 OCNL LTGICCG OHD TS OHD MOV E P0028 T02060133 $
KCOS 222246Z 06009G23KT 7SM R17L/3500VP6000FT TSRA SCT030 BKN070CB OVC100 22/15 A3034 RMK AO2 PK WND 26037/2232 RAB11 TSB11 FRQ LTGICCG OHD TS OHD MOV E P0025 T02170150 $
KCOS 222237Z 29010G37KT 200V340 2SM R17L/3500VP6000FT +TSRA SCT030 OVC060CB 22/13 A3035 RMK AO2 PK WND 26037/2232 PRESRR RAB11 TSB11 OCNL LTGICCG OHD TS OHD MOV E P0007 T02170133 $
KCOS 222230Z 25021G26KT 3SM -TSRA SCT060CB BKN090 OVC200 27/12 A3032 RMK AO2 PK WND 25026/2230 PRESRR RAB11 TSB11 OCNL LTGICCG OHD TS OHD MOV E P0000 T02720117 $
KCOS 222213Z 02008KT 10SM VCTS -RA SCT060CB BKN120 BKN240 30/09 A3027 RMK AO2 RAB11 TSB11 OCNL LTGICCG VC SW-NW TS VC SW-NW MOV E P0000 T03000089 $
KCOS 222154Z 03011KT 10SM SCT070 BKN120 BKN240 30/09 A3025 RMK AO2 PK WND 02028/2116 SLP147 OCNL LTGICCG DSNT ALQDS CB DSNT ALQDS MOV E VCSH SW-W T03000094 $
KCOS 222054Z 28003KT 10SM FEW120 SCT160 BKN240 32/12 A3025 RMK AO2 SLP140 OCNL LTGICCG DSNT ALQDS CB DSNT ALQDS MOV E 60000 T03170117 58003 $
KCOS 221954Z 06007KT 10SM SCT065 SCT120 BKN200 31/09 A3026 RMK AO2 PK WND 01026/1902 RAE03 SLP140 TSE43 OCNL LTGICCG DSNT SW CB DSNT SW MOV E P0000 T03060089 $
KCOS 221952Z 04006KT 10SM SCT065 SCT120 BKN200 31/08 A3026 RMK AO2 PK WND 01026/1902 RAE03 TSE43 OCNL LTGICCG DSNT SW CB DSNT SW MOV E P0000 $
KCOS 221854Z 35014G22KT 8SM VCTS -RA SCT110CB BKN200 29/11 A3026 RMK AO2 RAB06E15B47 SLP148 TSB34 OCNL LTGICCG VC N TS VC N MOV E P0000 T02890106 $
KCOS 221837Z COR 06014G19KT 9SM VCTS SCT110CB BKN200 32/08 A3025 RMK AO2 RAB06E15 TSB34 OCNL LTGICCG VC NW-N TS VC NW-N MOV E P0000 T03170083 $
KCOS 221754Z 07014KT 9SM SCT110 BKN200 31/08 A3024 RMK AO2 SLP135 HZ MTNS OBSCD T03110078 10339 20167 53003 $
KCOS 221654Z 06005KT 8SM FEW120 SCT180 32/07 A3023 RMK AO2 SLP126 HZ MTNS OBSCD T03220072 $
KCOS 221554Z 35007KT 8SM FEW090 FEW180 32/09 A3023 RMK AO2 SLP126 HZ T03170094 $
KCOS 221454Z 33007KT 9SM FEW095 FEW170 29/10 A3023 RMK AO2 SLP129 HZ T02940100 56003 $
KCOS 221354Z 27004KT 10SM FEW180 SCT250 23/14 A3024 RMK AO2 SLP140 HZ T02280144 $
KCOS 221254Z 01003KT 10SM FEW180 SCT250 18/14 A3023 RMK AO2 SLP147 T01830139 $
KCOS 221154Z 02003KT 10SM FEW140 FEW180 SCT250 17/13 A3024 RMK AO2 SLP157 70008 T01670133 10211 20161 55005 $
KCOS 221054Z 03006KT 10SM FEW180 SCT250 17/13 A3024 RMK AO2 SLP161 T01670133 $
KCOS 220954Z 02005KT 10SM BKN180 BKN250 18/14 A3025 RMK AO2 SLP143 T01780139 $
KCOS 220854Z 05005KT 10SM BKN180 BKN250 19/14 A3026 RMK AO2 SLP139 T01890144 58007 $
KCOS 220754Z 18004KT 10SM FEW180 SCT250 21/13 A3028 RMK AO2 SLP143 T02110133 $
KCOS 220654Z 12004KT 10SM FEW180 BKN250 19/14 A3029 RMK AO2 SLP153 T01940139 403440194 $
KCOS 220554Z 09006KT 10SM FEW090 SCT180 BKN250 21/14 A3029 RMK AO2 SLP148 T02060144 10261 20206 51010 $
KCOS 220454Z 09004KT 10SM FEW100 BKN140 BKN250 23/13 A3028 RMK AO2 SLP144 T02280133 $
KCOS 220354Z 16006KT 10SM FEW100 BKN150 BKN250 24/13 A3028 RMK AO2 SLP144 T02390133 $
KCOS 220254Z 08004KT 10SM FEW100 BKN150 BKN250 24/16 A3025 RMK AO2 SLP140 T02390161 55002 $
KCOS 220154Z 29003KT 10SM FEW100 SCT140 BKN250 26/14 A3025 RMK AO2 SLP137 T02560139 $
KCOS 220054Z 30005KT 10SM FEW080 SCT170 BKN250 26/14 A3023 RMK AO2 SLP139 TSE06 OCNL LTGICCG DSNT E CB DSNT E MOV NE T02610144 $
KCOS 220008Z 00000KT 10SM FEW090 BKN170 BKN250 25/14 A3025 RMK AO2 TSE06 OCNL LTGICCG DSNT NE-SE CB DSNT NE-SE MOV E T02500139 $
KCOS 212354Z 35004KT 10SM VCTS FEW060CB SCT090 BKN180 24/14 A3026 RMK AO2 SLP155 RAE42 OCNL LTGICCG VC E TS VC E MOV E P0007 60008 T02440144 10344 20217 52018 $
KCOS 212326Z 27006KT 10SM -TSRA FEW065CB BKN100 BKN250 22/14 A3027 RMK AO2 FRQ LTGICCG S TS S MOV E P0002 T02220144 $
KCOS 212254Z 28013G23KT 10SM VCTS -RA FEW065CB BKN100 OVC250 22/13 A3026 RMK AO2 PK WND 29038/2231 WSHFT 2214 PRESRR SLP159 RAB22 TSB02 OCNL LTGICCG VC S TS VC S MOV E P0001 T02220133
KCOS 212234Z 28024G38KT 10SM -TSRA FEW070CB BKN100 BKN250 24/12 A3025 RMK AO2 PK WND 29038/2231 WSHFT 2214 PRESRR RAB22 TSB02 FRQ LTGICCG OHD TS OHD MOV E P0001 T02440122
KCOS 212222Z COR 29020G32KT 10SM VCTS -RA FEW080CB BKN110 BKN250 29/08 A3022 RMK AO2 PK WND 30032/2218 PRESRR RAB22 TSB02 OCNL LTGICCG VC SW TS VC SW MOV E VCSH S-W T02890083
KCOS 212203Z COR VRB04KT 10SM VCTS FEW090CB BKN150 BKN250 32/07 A3019 RMK AO2 TSB02 OCNL LTGICCG VC SW TS VC SW MOV E VCSH SW-NW T03170067
KCOS 212154Z 18012KT 10SM FEW100 BKN160 BKN250 32/08 A3019 RMK AO2 SLP113 OCNL LTGICCG DSNT SW-NW CB DSNT SW-NW MOV E VCSH SW-NW T03220078
KCOS 212054Z 17015G22KT 10SM FEW120 BKN180 BKN250 34/08 A3019 RMK AO2 SLP112 VIRGA SW ACSL SE-S T03390083 55009